createdAt,value
2023-01-17T00:00:15.536Z,66.60
2023-01-17T00:00:24.922Z,66.40
2023-01-17T00:00:34.359Z,66.60
2023-01-17T00:00:43.795Z,66.60
2023-01-17T00:00:53.200Z,66.50
2023-01-17T00:01:02.615Z,66.50
2023-01-17T00:01:12.033Z,66.50
2023-01-17T00:01:21.450Z,66.50
2023-01-17T00:01:30.836Z,66.50
2023-01-17T00:01:40.252Z,66.60
2023-01-17T00:01:49.668Z,66.60
2023-01-17T00:01:59.062Z,66.70
2023-01-17T00:02:08.465Z,66.60
2023-01-17T00:02:17.936Z,66.60
2023-01-17T00:02:27.365Z,66.60
2023-01-17T00:02:36.732Z,66.60
2023-01-17T00:02:55.680Z,66.70
2023-01-17T00:03:04.978Z,66.60
2023-01-17T00:03:14.404Z,66.70
2023-01-17T00:03:23.808Z,66.70
2023-01-17T00:03:33.217Z,66.70
2023-01-17T00:03:42.630Z,66.70
2023-01-17T00:03:52.125Z,66.60
2023-01-17T00:04:01.548Z,66.60
2023-01-17T00:04:10.889Z,66.60
2023-01-17T00:04:20.251Z,66.60
2023-01-17T00:04:29.659Z,66.60
2023-01-17T00:04:39.048Z,66.60
2023-01-17T00:04:48.479Z,66.60
2023-01-17T00:04:57.893Z,66.60
2023-01-17T00:05:07.406Z,66.60
2023-01-17T00:05:16.787Z,66.50
2023-01-17T00:05:35.739Z,66.60
2023-01-17T00:05:45.149Z,66.50
2023-01-17T00:05:54.579Z,66.50
2023-01-17T00:06:03.994Z,66.50
2023-01-17T00:06:13.400Z,66.40
2023-01-17T00:06:22.813Z,66.40
2023-01-17T00:06:32.207Z,66.40
2023-01-17T00:06:41.597Z,66.50
2023-01-17T00:06:51.003Z,66.40
2023-01-17T00:07:00.400Z,66.40
2023-01-17T00:07:09.822Z,66.40
2023-01-17T00:07:19.284Z,66.40
2023-01-17T00:07:28.709Z,66.40
2023-01-17T00:07:38.193Z,66.40
2023-01-17T00:07:47.580Z,66.30
2023-01-17T00:07:57.081Z,66.30
2023-01-17T00:08:15.916Z,66.30
2023-01-17T00:08:25.353Z,66.20
2023-01-17T00:08:34.786Z,66.30
2023-01-17T00:08:44.197Z,66.30
2023-01-17T00:08:53.606Z,66.30
2023-01-17T00:09:03.016Z,66.40
2023-01-17T00:09:12.420Z,66.40
2023-01-17T00:09:21.838Z,66.40
2023-01-17T00:09:31.323Z,66.40
2023-01-17T00:09:40.739Z,66.40
2023-01-17T00:09:50.157Z,66.40
2023-01-17T00:10:03.534Z,66.40
2023-01-17T00:10:16.895Z,66.50
2023-01-17T00:10:26.397Z,66.40
2023-01-17T00:10:35.725Z,66.40
2023-01-17T00:10:45.286Z,66.40
2023-01-17T00:10:54.720Z,66.40
2023-01-17T00:11:04.156Z,66.40
2023-01-17T00:11:13.563Z,66.30
2023-01-17T00:11:23.097Z,66.40
2023-01-17T00:11:32.516Z,66.40
2023-01-17T00:11:41.916Z,66.40
2023-01-17T00:11:51.422Z,66.30
2023-01-17T00:12:00.903Z,66.30
2023-01-17T00:12:10.332Z,66.30
2023-01-17T00:12:19.764Z,66.40
2023-01-17T00:12:29.212Z,66.50
2023-01-17T00:12:38.627Z,66.50
2023-01-17T00:12:48.101Z,66.60
2023-01-17T00:12:57.520Z,66.60
2023-01-17T00:13:06.920Z,66.70
2023-01-17T00:13:25.733Z,66.80
2023-01-17T00:13:35.154Z,66.80
2023-01-17T00:13:44.641Z,66.70
2023-01-17T00:13:54.043Z,66.80
2023-01-17T00:14:03.495Z,66.90
2023-01-17T00:14:12.909Z,66.90
2023-01-17T00:14:22.322Z,66.90
2023-01-17T00:14:31.755Z,66.90
2023-01-17T00:14:41.170Z,66.90
2023-01-17T00:14:50.591Z,66.80
2023-01-17T00:14:59.978Z,66.90
2023-01-17T00:15:09.388Z,66.90
2023-01-17T00:15:18.787Z,67.00
2023-01-17T00:15:28.213Z,67.00
2023-01-17T00:15:37.599Z,67.10
2023-01-17T00:15:47.011Z,67.00
2023-01-17T00:16:05.895Z,66.90
2023-01-17T00:16:15.332Z,66.90
2023-01-17T00:16:24.725Z,66.90
2023-01-17T00:16:34.124Z,66.90
2023-01-17T00:16:43.549Z,66.90
2023-01-17T00:16:52.969Z,66.90
2023-01-17T00:17:02.358Z,67.00
2023-01-17T00:17:11.779Z,67.00
2023-01-17T00:17:21.204Z,67.00
2023-01-17T00:17:30.596Z,67.00
2023-01-17T00:17:40.028Z,67.10
2023-01-17T00:17:49.472Z,67.00
2023-01-17T00:17:58.824Z,67.10
2023-01-17T00:18:08.235Z,67.10
2023-01-17T00:18:17.693Z,67.10
2023-01-17T00:18:27.063Z,67.10
2023-01-17T00:18:45.891Z,67.00
2023-01-17T00:18:55.368Z,67.00
2023-01-17T00:19:04.796Z,67.00
2023-01-17T00:19:14.184Z,67.00
2023-01-17T00:19:23.578Z,66.90
2023-01-17T00:19:32.984Z,66.90
2023-01-17T00:19:42.391Z,66.80
2023-01-17T00:19:51.809Z,66.80
2023-01-17T00:20:01.223Z,66.70
2023-01-17T00:20:10.625Z,66.70
2023-01-17T00:20:20.371Z,66.70
2023-01-17T00:20:29.461Z,66.70
2023-01-17T00:20:38.867Z,66.60
2023-01-17T00:20:48.272Z,66.60
2023-01-17T00:20:57.665Z,66.60
2023-01-17T00:21:07.056Z,66.60
2023-01-17T00:21:25.842Z,66.60
2023-01-17T00:21:35.256Z,66.60
2023-01-17T00:21:44.696Z,66.60
2023-01-17T00:21:54.122Z,66.60
2023-01-17T00:22:03.602Z,66.60
2023-01-17T00:22:13.033Z,66.60
2023-01-17T00:22:22.460Z,66.60
2023-01-17T00:22:31.872Z,66.50
2023-01-17T00:22:41.277Z,66.50
2023-01-17T00:22:50.678Z,66.50
2023-01-17T00:23:00.105Z,66.50
2023-01-17T00:23:09.492Z,66.50
2023-01-17T00:23:18.907Z,66.40
2023-01-17T00:23:28.294Z,66.30
2023-01-17T00:23:37.676Z,66.30
2023-01-17T00:23:47.074Z,66.40
2023-01-17T00:24:05.852Z,66.50
2023-01-17T00:24:15.292Z,66.40
2023-01-17T00:24:24.694Z,66.40
2023-01-17T00:24:34.166Z,66.40
2023-01-17T00:24:43.587Z,66.50
2023-01-17T00:24:52.984Z,66.50
2023-01-17T00:25:02.383Z,66.60
2023-01-17T00:25:11.778Z,66.60
2023-01-17T00:25:21.174Z,66.60
2023-01-17T00:25:30.571Z,66.70
2023-01-17T00:25:40.027Z,66.70
2023-01-17T00:25:49.419Z,66.70
2023-01-17T00:25:58.826Z,66.70
2023-01-17T00:26:08.240Z,66.70
2023-01-17T00:26:17.634Z,66.60
2023-01-17T00:26:27.055Z,66.60
2023-01-17T00:26:45.853Z,66.60
2023-01-17T00:26:55.261Z,66.50
2023-01-17T00:27:04.653Z,66.50
2023-01-17T00:27:14.052Z,66.50
2023-01-17T00:27:23.491Z,66.50
2023-01-17T00:27:32.895Z,66.50
2023-01-17T00:27:42.320Z,66.40
2023-01-17T00:27:51.718Z,66.30
2023-01-17T00:28:01.160Z,66.30
2023-01-17T00:28:10.558Z,66.30
2023-01-17T00:28:20.018Z,66.30
2023-01-17T00:28:29.386Z,66.30
2023-01-17T00:28:38.811Z,66.30
2023-01-17T00:28:48.216Z,66.30
2023-01-17T00:28:57.596Z,66.30
2023-01-17T00:29:07.002Z,66.30
2023-01-17T00:29:25.825Z,66.30
2023-01-17T00:29:35.217Z,66.30
2023-01-17T00:29:44.777Z,66.30
2023-01-17T00:29:54.170Z,66.30
2023-01-17T00:30:03.583Z,66.20
2023-01-17T00:30:12.973Z,66.30
2023-01-17T00:30:22.383Z,66.30
2023-01-17T00:30:31.793Z,66.30
2023-01-17T00:30:41.214Z,66.30
2023-01-17T00:30:50.632Z,66.30
2023-01-17T00:31:00.160Z,66.20
2023-01-17T00:31:09.493Z,66.30
2023-01-17T00:31:18.941Z,66.30
2023-01-17T00:31:28.381Z,66.30
2023-01-17T00:31:37.781Z,66.30
2023-01-17T00:31:47.170Z,66.20
2023-01-17T00:32:05.905Z,66.20
2023-01-17T00:32:15.306Z,66.20
2023-01-17T00:32:24.724Z,66.10
2023-01-17T00:32:34.121Z,66.10
2023-01-17T00:32:43.540Z,66.20
2023-01-17T00:32:52.962Z,66.10
2023-01-17T00:33:02.349Z,66.00
2023-01-17T00:33:11.767Z,66.10
2023-01-17T00:33:21.168Z,66.10
2023-01-17T00:33:30.581Z,66.10
2023-01-17T00:33:39.963Z,66.10
2023-01-17T00:33:49.397Z,66.20
2023-01-17T00:33:58.789Z,66.10
2023-01-17T00:34:08.201Z,66.20
2023-01-17T00:34:17.623Z,66.10
2023-01-17T00:34:27.068Z,66.20
2023-01-17T00:34:45.890Z,66.20
2023-01-17T00:34:55.305Z,66.20
2023-01-17T00:35:04.717Z,66.10
2023-01-17T00:35:14.109Z,66.00
2023-01-17T00:35:23.508Z,66.00
2023-01-17T00:35:32.924Z,66.00
2023-01-17T00:35:42.338Z,66.00
2023-01-17T00:35:51.769Z,66.00
2023-01-17T00:36:01.201Z,66.00
2023-01-17T00:36:10.596Z,65.90
2023-01-17T00:36:19.996Z,66.00
2023-01-17T00:36:29.371Z,65.90
2023-01-17T00:36:38.760Z,66.00
2023-01-17T00:36:48.181Z,66.00
2023-01-17T00:36:57.599Z,66.00
2023-01-17T00:37:07.054Z,66.00
2023-01-17T00:37:25.857Z,66.00
2023-01-17T00:37:35.282Z,66.00
2023-01-17T00:37:44.704Z,65.90
2023-01-17T00:37:54.129Z,65.90
2023-01-17T00:38:03.564Z,65.90
2023-01-17T00:38:12.933Z,65.80
2023-01-17T00:38:22.326Z,65.70
2023-01-17T00:38:31.749Z,65.70
2023-01-17T00:38:41.144Z,65.70
2023-01-17T00:38:50.544Z,65.70
2023-01-17T00:38:59.984Z,65.80
2023-01-17T00:39:09.409Z,65.80
2023-01-17T00:39:18.815Z,65.90
2023-01-17T00:39:28.229Z,65.90
2023-01-17T00:39:37.677Z,65.90
2023-01-17T00:39:47.076Z,65.90
2023-01-17T00:40:05.913Z,66.00
2023-01-17T00:40:15.336Z,66.00
2023-01-17T00:40:24.742Z,66.00
2023-01-17T00:40:34.184Z,66.00
2023-01-17T00:40:43.599Z,65.90
2023-01-17T00:40:53.040Z,65.90
2023-01-17T00:41:02.416Z,65.90
2023-01-17T00:41:11.825Z,65.80
2023-01-17T00:41:21.235Z,65.90
2023-01-17T00:41:30.642Z,65.70
2023-01-17T00:41:40.063Z,65.90
2023-01-17T00:41:49.481Z,65.90
2023-01-17T00:41:58.895Z,65.90
2023-01-17T00:42:08.288Z,65.90
2023-01-17T00:42:17.704Z,66.00
2023-01-17T00:42:27.212Z,66.00
2023-01-17T00:42:36.656Z,66.00
2023-01-17T00:42:55.417Z,65.90
2023-01-17T00:43:04.820Z,66.00
2023-01-17T00:43:14.236Z,65.90
2023-01-17T00:43:23.624Z,65.90
2023-01-17T00:43:33.024Z,65.90
2023-01-17T00:43:42.426Z,65.90
2023-01-17T00:43:51.844Z,65.90
2023-01-17T00:44:01.291Z,65.90
2023-01-17T00:44:10.688Z,65.90
2023-01-17T00:44:20.085Z,65.90
2023-01-17T00:44:29.482Z,65.90
2023-01-17T00:44:38.874Z,65.90
2023-01-17T00:44:48.290Z,65.80
2023-01-17T00:44:57.694Z,65.80
2023-01-17T00:45:07.103Z,65.80
2023-01-17T00:45:25.928Z,65.70
2023-01-17T00:45:35.351Z,65.70
2023-01-17T00:45:44.757Z,65.70
2023-01-17T00:45:54.183Z,65.70
2023-01-17T00:46:03.655Z,65.70
2023-01-17T00:46:13.140Z,65.70
2023-01-17T00:46:22.657Z,65.70
2023-01-17T00:46:31.941Z,65.70
2023-01-17T00:46:41.457Z,65.70
2023-01-17T00:46:50.834Z,65.60
2023-01-17T00:47:00.191Z,65.70
2023-01-17T00:47:09.600Z,65.60
2023-01-17T00:47:19.040Z,65.60
2023-01-17T00:47:28.478Z,65.60
2023-01-17T00:47:37.873Z,65.60
2023-01-17T00:47:47.362Z,65.50
2023-01-17T00:47:57.028Z,65.50
2023-01-17T00:48:15.591Z,65.60
2023-01-17T00:48:25.006Z,65.50
2023-01-17T00:48:34.407Z,65.60
2023-01-17T00:48:43.798Z,65.60
2023-01-17T00:48:53.210Z,65.50
2023-01-17T00:49:02.619Z,65.60
2023-01-17T00:49:12.006Z,65.60
2023-01-17T00:49:21.499Z,65.50
2023-01-17T00:49:30.914Z,65.60
2023-01-17T00:49:40.307Z,65.60
2023-01-17T00:49:49.734Z,65.50
2023-01-17T00:49:59.110Z,65.50
2023-01-17T00:50:08.493Z,65.60
2023-01-17T00:50:17.919Z,65.50
2023-01-17T00:50:27.320Z,65.50
2023-01-17T00:50:36.703Z,65.50
2023-01-17T00:50:55.551Z,65.50
2023-01-17T00:51:04.963Z,65.50
2023-01-17T00:51:14.379Z,65.50
2023-01-17T00:51:23.787Z,65.60
2023-01-17T00:51:33.183Z,65.50
2023-01-17T00:51:42.595Z,65.60
2023-01-17T00:51:51.998Z,65.60
2023-01-17T00:52:01.432Z,65.70
2023-01-17T00:52:10.921Z,65.70
2023-01-17T00:52:20.326Z,65.70
2023-01-17T00:52:29.774Z,65.70
2023-01-17T00:52:39.205Z,65.70
2023-01-17T00:52:48.616Z,65.70
2023-01-17T00:52:58.025Z,65.60
2023-01-17T00:53:07.463Z,65.60
2023-01-17T00:53:16.872Z,65.60
2023-01-17T00:53:35.739Z,65.50
2023-01-17T00:53:45.146Z,65.60
2023-01-17T00:53:54.522Z,65.60
2023-01-17T00:54:03.911Z,65.60
2023-01-17T00:54:13.342Z,65.60
2023-01-17T00:54:22.752Z,65.60
2023-01-17T00:54:32.187Z,65.70
2023-01-17T00:54:41.652Z,65.70
2023-01-17T00:54:50.990Z,65.60
2023-01-17T00:55:00.465Z,65.70
2023-01-17T00:55:09.820Z,65.60
2023-01-17T00:55:19.237Z,65.70
2023-01-17T00:55:28.652Z,65.60
2023-01-17T00:55:38.033Z,65.60
2023-01-17T00:55:47.588Z,65.60
2023-01-17T00:55:56.856Z,65.60
2023-01-17T00:56:15.659Z,65.60
2023-01-17T00:56:25.057Z,65.60
2023-01-17T00:56:34.462Z,65.60
2023-01-17T00:56:43.877Z,65.60
2023-01-17T00:56:53.270Z,65.60
2023-01-17T00:57:02.676Z,65.50
2023-01-17T00:57:12.179Z,65.50
2023-01-17T00:57:21.606Z,65.40
2023-01-17T00:57:31.060Z,65.40
2023-01-17T00:57:40.475Z,65.50
2023-01-17T00:57:49.907Z,65.60
2023-01-17T00:57:59.305Z,65.60
2023-01-17T00:58:08.723Z,65.60
2023-01-17T00:58:18.124Z,65.60
2023-01-17T00:58:27.547Z,65.60
2023-01-17T00:58:36.973Z,65.60
2023-01-17T00:58:55.766Z,65.60
2023-01-17T00:59:05.169Z,65.60
2023-01-17T00:59:14.575Z,65.60
2023-01-17T00:59:23.970Z,65.60
2023-01-17T00:59:33.408Z,65.50
2023-01-17T00:59:42.797Z,65.60
2023-01-17T00:59:52.212Z,65.50
2023-01-17T01:00:01.605Z,65.50
2023-01-17T01:00:11.020Z,65.40
2023-01-17T01:00:20.420Z,65.40
2023-01-17T01:00:29.941Z,65.40
2023-01-17T01:00:39.302Z,65.40
2023-01-17T01:00:48.751Z,65.40
2023-01-17T01:00:58.120Z,65.40
2023-01-17T01:01:07.548Z,65.40
2023-01-17T01:01:17.054Z,65.40
2023-01-17T01:01:35.926Z,65.40
2023-01-17T01:01:45.300Z,65.40
2023-01-17T01:01:54.708Z,65.40
2023-01-17T01:02:04.010Z,65.50
2023-01-17T01:02:13.307Z,65.40
2023-01-17T01:02:22.752Z,65.50
2023-01-17T01:02:32.172Z,65.50
2023-01-17T01:02:41.580Z,65.40
2023-01-17T01:02:51.009Z,65.40
2023-01-17T01:03:00.394Z,65.40
2023-01-17T01:03:09.770Z,65.40
2023-01-17T01:03:19.182Z,65.40
2023-01-17T01:03:28.634Z,65.30
2023-01-17T01:03:37.983Z,65.40
2023-01-17T01:03:47.398Z,65.40
2023-01-17T01:03:56.795Z,65.20
2023-01-17T01:04:15.634Z,65.30
2023-01-17T01:04:25.035Z,65.40
2023-01-17T01:04:34.448Z,65.30
2023-01-17T01:04:43.883Z,65.40
2023-01-17T01:04:53.307Z,65.40
2023-01-17T01:05:02.717Z,65.20
2023-01-17T01:05:12.132Z,65.30
2023-01-17T01:05:21.549Z,65.30
2023-01-17T01:05:30.939Z,65.10
2023-01-17T01:05:40.359Z,65.20
2023-01-17T01:05:49.778Z,65.20
2023-01-17T01:05:59.166Z,65.30
2023-01-17T01:06:08.699Z,65.30
2023-01-17T01:06:18.105Z,65.40
2023-01-17T01:06:27.522Z,65.40
2023-01-17T01:06:36.935Z,65.50
2023-01-17T01:06:55.741Z,65.50
2023-01-17T01:07:05.176Z,65.50
2023-01-17T01:07:14.602Z,65.50
2023-01-17T01:07:23.986Z,65.50
2023-01-17T01:07:33.445Z,65.50
2023-01-17T01:07:42.868Z,65.50
2023-01-17T01:07:52.270Z,65.40
2023-01-17T01:08:01.713Z,65.40
2023-01-17T01:08:11.115Z,65.40
2023-01-17T01:08:20.561Z,65.40
2023-01-17T01:08:29.968Z,65.40
2023-01-17T01:08:39.398Z,65.40
2023-01-17T01:08:48.830Z,65.40
2023-01-17T01:08:58.231Z,65.40
2023-01-17T01:09:07.638Z,65.40
2023-01-17T01:09:17.039Z,65.40
2023-01-17T01:09:35.851Z,65.40
2023-01-17T01:09:45.279Z,65.40
2023-01-17T01:09:54.657Z,65.40
2023-01-17T01:10:04.056Z,65.30
2023-01-17T01:10:13.461Z,65.40
2023-01-17T01:10:22.864Z,65.50
2023-01-17T01:10:32.300Z,65.40
2023-01-17T01:10:41.731Z,65.50
2023-01-17T01:10:51.181Z,65.50
2023-01-17T01:11:00.655Z,65.60
2023-01-17T01:11:10.075Z,65.60
2023-01-17T01:11:19.508Z,65.70
2023-01-17T01:11:28.906Z,65.70
2023-01-17T01:11:38.316Z,65.60
2023-01-17T01:11:47.712Z,65.60
2023-01-17T01:11:57.128Z,65.60
2023-01-17T01:12:15.977Z,65.50
2023-01-17T01:12:25.389Z,65.50
2023-01-17T01:12:38.013Z,65.60
2023-01-17T01:12:47.402Z,65.60
2023-01-17T01:12:56.796Z,65.50
2023-01-17T01:13:06.209Z,65.60
2023-01-17T01:13:15.618Z,65.60
2023-01-17T01:13:25.022Z,65.60
2023-01-17T01:13:34.470Z,65.50
2023-01-17T01:13:43.874Z,65.50
2023-01-17T01:13:53.298Z,65.50
2023-01-17T01:14:02.715Z,65.60
2023-01-17T01:14:12.104Z,65.60
2023-01-17T01:14:21.511Z,65.50
2023-01-17T01:14:30.942Z,65.70
2023-01-17T01:14:40.352Z,65.60
2023-01-17T01:14:49.760Z,65.70
2023-01-17T01:14:59.159Z,65.70
2023-01-17T01:15:08.546Z,65.60
2023-01-17T01:15:17.943Z,65.70
2023-01-17T01:15:27.360Z,65.70
2023-01-17T01:15:36.775Z,65.60
2023-01-17T01:15:55.631Z,65.70
2023-01-17T01:16:05.140Z,65.70
2023-01-17T01:16:14.511Z,65.70
2023-01-17T01:16:24.083Z,65.70
2023-01-17T01:16:33.397Z,65.60
2023-01-17T01:16:42.709Z,65.60
2023-01-17T01:16:52.119Z,65.50
2023-01-17T01:17:01.536Z,65.50
2023-01-17T01:17:10.944Z,65.60
2023-01-17T01:17:20.341Z,65.50
2023-01-17T01:17:29.768Z,65.60
2023-01-17T01:17:39.232Z,65.60
2023-01-17T01:17:48.638Z,65.60
2023-01-17T01:17:58.059Z,65.60
2023-01-17T01:18:07.475Z,65.60
2023-01-17T01:18:16.879Z,65.60
2023-01-17T01:18:35.740Z,65.60
2023-01-17T01:18:45.126Z,65.60
2023-01-17T01:18:54.567Z,65.60
2023-01-17T01:19:04.012Z,65.70
2023-01-17T01:19:13.432Z,65.60
2023-01-17T01:19:22.845Z,65.70
2023-01-17T01:19:32.270Z,65.70
2023-01-17T01:19:41.651Z,65.70
2023-01-17T01:19:51.106Z,65.70
2023-01-17T01:20:00.523Z,65.80
2023-01-17T01:20:09.917Z,65.80
2023-01-17T01:20:22.158Z,65.80
2023-01-17T01:20:29.274Z,65.80
2023-01-17T01:20:38.693Z,65.80
2023-01-17T01:20:48.085Z,65.80
2023-01-17T01:20:57.473Z,65.80
2023-01-17T01:21:06.884Z,65.80
2023-01-17T01:21:25.697Z,65.80
2023-01-17T01:21:35.147Z,65.80
2023-01-17T01:21:44.551Z,65.80
2023-01-17T01:21:53.970Z,65.70
2023-01-17T01:22:03.383Z,65.80
2023-01-17T01:22:12.799Z,65.70
2023-01-17T01:22:22.216Z,65.70
2023-01-17T01:22:31.643Z,65.70
2023-01-17T01:22:41.083Z,65.70
2023-01-17T01:22:50.456Z,65.80
2023-01-17T01:22:59.868Z,65.70
2023-01-17T01:23:09.288Z,65.70
2023-01-17T01:23:18.709Z,65.80
2023-01-17T01:23:28.140Z,65.80
2023-01-17T01:23:37.549Z,65.80
2023-01-17T01:23:47.031Z,65.80
2023-01-17T01:24:05.830Z,65.90
2023-01-17T01:24:15.247Z,65.90
2023-01-17T01:24:24.663Z,66.00
2023-01-17T01:24:34.071Z,66.00
2023-01-17T01:24:43.493Z,66.00
2023-01-17T01:24:52.908Z,65.90
2023-01-17T01:25:02.272Z,66.00
2023-01-17T01:25:11.714Z,66.00
2023-01-17T01:25:21.108Z,66.10
2023-01-17T01:25:30.515Z,66.20
2023-01-17T01:25:39.915Z,66.20
2023-01-17T01:25:49.338Z,66.20
2023-01-17T01:25:58.737Z,66.20
2023-01-17T01:26:08.136Z,66.20
2023-01-17T01:26:17.536Z,66.20
2023-01-17T01:26:26.921Z,66.20
2023-01-17T01:26:45.711Z,66.20
2023-01-17T01:26:55.116Z,66.10
2023-01-17T01:27:04.526Z,66.10
2023-01-17T01:27:13.908Z,66.00
2023-01-17T01:27:23.341Z,66.00
2023-01-17T01:27:32.765Z,66.00
2023-01-17T01:27:42.216Z,66.00
2023-01-17T01:27:51.621Z,66.00
2023-01-17T01:28:01.037Z,66.10
2023-01-17T01:28:10.456Z,66.10
2023-01-17T01:28:19.871Z,66.10
2023-01-17T01:28:29.275Z,66.10
2023-01-17T01:28:38.669Z,66.10
2023-01-17T01:28:48.087Z,66.10
2023-01-17T01:28:57.500Z,66.10
2023-01-17T01:29:06.897Z,66.10
2023-01-17T01:29:25.712Z,66.10
2023-01-17T01:29:35.131Z,66.00
2023-01-17T01:29:44.519Z,66.10
2023-01-17T01:29:53.919Z,66.10
2023-01-17T01:30:03.338Z,66.10
2023-01-17T01:30:12.762Z,66.10
2023-01-17T01:30:22.185Z,66.10
2023-01-17T01:30:31.592Z,66.00
2023-01-17T01:30:41.008Z,66.00
2023-01-17T01:30:50.410Z,66.00
2023-01-17T01:30:59.802Z,66.00
2023-01-17T01:31:09.303Z,66.00
2023-01-17T01:31:18.728Z,66.00
2023-01-17T01:31:28.160Z,66.00
2023-01-17T01:31:37.485Z,66.00
2023-01-17T01:31:46.913Z,66.00
2023-01-17T01:32:05.661Z,66.10
2023-01-17T01:32:15.120Z,66.20
2023-01-17T01:32:24.605Z,66.20
2023-01-17T01:32:34.008Z,66.10
2023-01-17T01:32:43.435Z,66.20
2023-01-17T01:32:52.840Z,66.10
2023-01-17T01:33:02.256Z,66.20
2023-01-17T01:33:11.654Z,66.00
2023-01-17T01:33:21.172Z,66.10
2023-01-17T01:33:30.481Z,66.00
2023-01-17T01:33:39.884Z,66.00
2023-01-17T01:33:49.290Z,65.90
2023-01-17T01:33:58.684Z,65.90
2023-01-17T01:34:08.079Z,65.90
2023-01-17T01:34:17.521Z,65.90
2023-01-17T01:34:26.996Z,65.80
2023-01-17T01:34:45.745Z,65.80
2023-01-17T01:34:55.148Z,65.80
2023-01-17T01:35:04.558Z,65.70
2023-01-17T01:35:13.988Z,65.70
2023-01-17T01:35:23.394Z,65.70
2023-01-17T01:35:32.822Z,65.70
2023-01-17T01:35:42.212Z,65.70
2023-01-17T01:35:51.649Z,65.70
2023-01-17T01:36:01.061Z,65.70
2023-01-17T01:36:10.478Z,65.70
2023-01-17T01:36:19.879Z,65.70
2023-01-17T01:36:29.285Z,65.70
2023-01-17T01:36:38.707Z,65.80
2023-01-17T01:36:48.155Z,65.80
2023-01-17T01:36:57.568Z,65.80
2023-01-17T01:37:06.973Z,65.80
2023-01-17T01:37:25.797Z,65.90
2023-01-17T01:37:35.231Z,66.00
2023-01-17T01:37:47.844Z,66.00
2023-01-17T01:37:57.234Z,66.00
2023-01-17T01:38:06.726Z,66.00
2023-01-17T01:38:16.044Z,66.00
2023-01-17T01:38:25.490Z,66.00
2023-01-17T01:38:34.869Z,66.00
2023-01-17T01:38:44.312Z,66.10
2023-01-17T01:38:53.697Z,66.10
2023-01-17T01:39:03.133Z,66.00
2023-01-17T01:39:12.560Z,66.10
2023-01-17T01:39:21.940Z,66.10
2023-01-17T01:39:31.347Z,66.20
2023-01-17T01:39:40.762Z,66.20
2023-01-17T01:39:50.183Z,66.20
2023-01-17T01:39:59.605Z,66.10
2023-01-17T01:40:08.964Z,66.10
2023-01-17T01:40:18.391Z,66.00
2023-01-17T01:40:27.802Z,66.00
2023-01-17T01:40:37.212Z,66.10
2023-01-17T01:40:46.628Z,66.10
2023-01-17T01:41:05.419Z,66.10
2023-01-17T01:41:14.826Z,66.20
2023-01-17T01:41:24.222Z,66.10
2023-01-17T01:41:33.714Z,66.10
2023-01-17T01:41:43.154Z,66.10
2023-01-17T01:41:52.555Z,66.00
2023-01-17T01:42:01.963Z,66.20
2023-01-17T01:42:11.419Z,66.10
2023-01-17T01:42:20.832Z,66.00
2023-01-17T01:42:30.223Z,66.00
2023-01-17T01:42:39.626Z,65.90
2023-01-17T01:42:49.029Z,66.00
2023-01-17T01:42:58.435Z,66.00
2023-01-17T01:43:07.841Z,65.90
2023-01-17T01:43:17.273Z,66.00
2023-01-17T01:43:26.673Z,65.90
2023-01-17T01:43:45.465Z,65.90
2023-01-17T01:43:55.027Z,65.90
2023-01-17T01:44:04.444Z,65.90
2023-01-17T01:44:13.878Z,65.90
2023-01-17T01:44:23.265Z,65.90
2023-01-17T01:44:32.677Z,66.00
2023-01-17T01:44:42.095Z,66.00
2023-01-17T01:44:51.537Z,66.00
2023-01-17T01:45:00.957Z,66.00
2023-01-17T01:45:10.334Z,66.00
2023-01-17T01:45:19.737Z,66.00
2023-01-17T01:45:29.229Z,66.00
2023-01-17T01:45:38.625Z,66.00
2023-01-17T01:45:48.101Z,66.00
2023-01-17T01:45:57.419Z,66.00
2023-01-17T01:46:06.792Z,66.00
2023-01-17T01:46:25.586Z,66.10
2023-01-17T01:46:35.007Z,66.10
2023-01-17T01:46:44.431Z,66.10
2023-01-17T01:46:53.843Z,66.10
2023-01-17T01:47:03.243Z,66.00
2023-01-17T01:47:12.635Z,66.10
2023-01-17T01:47:22.037Z,66.10
2023-01-17T01:47:31.430Z,66.10
2023-01-17T01:47:40.830Z,66.10
2023-01-17T01:47:50.247Z,66.10
2023-01-17T01:47:59.680Z,66.10
2023-01-17T01:48:09.070Z,65.90
2023-01-17T01:48:18.483Z,66.10
2023-01-17T01:48:27.906Z,66.10
2023-01-17T01:48:37.315Z,66.10
2023-01-17T01:48:46.735Z,66.10
2023-01-17T01:49:05.648Z,66.10
2023-01-17T01:49:15.059Z,66.20
2023-01-17T01:49:24.491Z,66.10
2023-01-17T01:49:33.915Z,66.10
2023-01-17T01:49:43.424Z,66.20
2023-01-17T01:49:52.804Z,66.20
2023-01-17T01:50:02.203Z,66.20
2023-01-17T01:50:11.611Z,66.20
2023-01-17T01:50:21.011Z,66.20
2023-01-17T01:50:30.454Z,66.20
2023-01-17T01:50:39.899Z,66.20
2023-01-17T01:50:49.309Z,66.20
2023-01-17T01:50:58.795Z,66.10
2023-01-17T01:51:08.165Z,66.10
2023-01-17T01:51:17.602Z,66.10
2023-01-17T01:51:27.015Z,66.10
2023-01-17T01:51:45.857Z,66.20
2023-01-17T01:51:55.393Z,66.20
2023-01-17T01:52:04.806Z,66.20
2023-01-17T01:52:14.214Z,66.20
2023-01-17T01:52:23.617Z,66.30
2023-01-17T01:52:33.011Z,66.30
2023-01-17T01:52:42.437Z,66.40
2023-01-17T01:52:51.891Z,66.40
2023-01-17T01:53:01.358Z,66.50
2023-01-17T01:53:10.755Z,66.60
2023-01-17T01:53:20.201Z,66.50
2023-01-17T01:53:29.598Z,66.60
2023-01-17T01:53:38.999Z,66.70
2023-01-17T01:53:48.446Z,66.60
2023-01-17T01:53:57.839Z,66.60
2023-01-17T01:54:07.235Z,66.60
2023-01-17T01:54:16.706Z,66.70
2023-01-17T01:54:35.535Z,66.70
2023-01-17T01:54:44.942Z,66.60
2023-01-17T01:54:54.360Z,66.60
2023-01-17T01:55:03.821Z,66.70
2023-01-17T01:55:13.211Z,66.70
2023-01-17T01:55:22.630Z,66.70
2023-01-17T01:55:32.049Z,66.70
2023-01-17T01:55:41.460Z,66.70
2023-01-17T01:55:50.856Z,66.70
2023-01-17T01:56:00.367Z,66.70
2023-01-17T01:56:09.799Z,66.70
2023-01-17T01:56:19.197Z,66.70
2023-01-17T01:56:28.667Z,66.80
2023-01-17T01:56:38.093Z,66.80
2023-01-17T01:56:47.512Z,66.80
2023-01-17T01:56:56.895Z,66.70
2023-01-17T01:57:15.759Z,66.60
2023-01-17T01:57:25.170Z,66.70
2023-01-17T01:57:34.571Z,66.70
2023-01-17T01:57:43.991Z,66.70
2023-01-17T01:57:53.428Z,66.80
2023-01-17T01:58:02.855Z,66.70
2023-01-17T01:58:12.259Z,66.80
2023-01-17T01:58:21.680Z,66.80
2023-01-17T01:58:31.115Z,66.80
2023-01-17T01:58:40.507Z,66.80
2023-01-17T01:58:49.937Z,66.80
2023-01-17T01:58:59.365Z,66.80
2023-01-17T01:59:08.806Z,66.80
2023-01-17T01:59:18.214Z,66.80
2023-01-17T01:59:27.659Z,66.80
2023-01-17T01:59:37.085Z,66.80
2023-01-17T01:59:55.933Z,66.80
2023-01-17T02:00:05.347Z,66.80
2023-01-17T02:00:14.790Z,66.80
2023-01-17T02:00:24.222Z,66.80
2023-01-17T02:00:33.667Z,66.80
2023-01-17T02:00:43.224Z,66.80
2023-01-17T02:00:52.624Z,66.80
2023-01-17T02:01:02.090Z,66.80
2023-01-17T02:01:11.504Z,66.70
2023-01-17T02:01:20.888Z,66.80
2023-01-17T02:01:30.333Z,66.70
2023-01-17T02:01:39.689Z,66.80
2023-01-17T02:01:49.171Z,66.80
2023-01-17T02:01:58.485Z,66.70
2023-01-17T02:02:07.825Z,66.80
2023-01-17T02:02:17.247Z,66.70
2023-01-17T02:02:26.686Z,66.80
2023-01-17T02:02:45.536Z,66.70
2023-01-17T02:02:54.970Z,66.70
2023-01-17T02:03:04.409Z,66.80
2023-01-17T02:03:13.833Z,66.80
2023-01-17T02:03:23.234Z,66.80
2023-01-17T02:03:32.788Z,66.80
2023-01-17T02:03:42.135Z,66.70
2023-01-17T02:03:51.479Z,66.80
2023-01-17T02:04:00.922Z,66.70
2023-01-17T02:04:10.397Z,66.70
2023-01-17T02:04:19.718Z,66.70
2023-01-17T02:04:29.188Z,66.70
2023-01-17T02:04:38.737Z,66.70
2023-01-17T02:04:48.151Z,66.70
2023-01-17T02:04:57.544Z,66.80
2023-01-17T02:05:06.962Z,66.90
2023-01-17T02:05:25.827Z,67.00
2023-01-17T02:05:35.269Z,67.00
2023-01-17T02:05:44.669Z,67.00
2023-01-17T02:05:54.068Z,67.00
2023-01-17T02:06:03.503Z,67.00
2023-01-17T02:06:12.902Z,67.10
2023-01-17T02:06:22.333Z,67.10
2023-01-17T02:06:31.738Z,67.00
2023-01-17T02:06:41.135Z,67.10
2023-01-17T02:06:50.539Z,67.10
2023-01-17T02:06:59.934Z,67.10
2023-01-17T02:07:09.339Z,67.10
2023-01-17T02:07:18.753Z,67.20
2023-01-17T02:07:28.162Z,67.20
2023-01-17T02:07:37.553Z,67.30
2023-01-17T02:07:47.000Z,67.30
2023-01-17T02:08:05.886Z,67.30
2023-01-17T02:08:15.344Z,67.30
2023-01-17T02:08:24.713Z,67.40
2023-01-17T02:08:34.101Z,67.40
2023-01-17T02:08:43.511Z,67.40
2023-01-17T02:08:52.899Z,67.40